Time;durP1;ratioP1;P1;durP2;ratioP2;P2;SDS_P1;SDS_P2;PMS_P1;PMS_P2;Temp;Humidity;BMP_temperature;BMP_pressure;BME280_temperature;BME280_humidity;BME280_pressure;Samples;Min_cycle;Max_cycle;Signal;HPM_P1;HPM_P2
2024/01/23 00:00:46;;;;;;;8.60;1.63;;;7.20;99.90;;;;;;5056681;28;20048;-52
2024/01/23 00:03:11;;;;;;;9.00;1.97;;;7.10;99.90;;;;;;5074435;28;20041;-53
2024/01/23 00:05:37;;;;;;;10.03;1.30;;;7.10;99.90;;;;;;5073194;28;20048;-53
2024/01/23 00:08:03;;;;;;;7.87;1.47;;;7.10;99.90;;;;;;5074342;28;20051;-52
2024/01/23 00:10:29;;;;;;;14.52;2.00;;;7.10;99.90;;;;;;5074192;28;20152;-52
2024/01/23 00:12:55;;;;;;;7.50;1.27;;;7.00;99.90;;;;;;5074023;28;20535;-53
2024/01/23 00:15:21;;;;;;;7.90;1.70;;;7.00;99.90;;;;;;5073947;28;20041;-53
2024/01/23 00:17:47;;;;;;;11.83;1.97;;;7.00;99.90;;;;;;5074127;28;20044;-54
2024/01/23 00:20:12;;;;;;;11.97;1.47;;;6.90;99.90;;;;;;5073720;28;20051;-53
2024/01/23 00:22:38;;;;;;;8.77;1.70;;;6.90;99.90;;;;;;5074120;28;20036;-54
2024/01/23 00:25:04;;;;;;;10.00;1.63;;;6.90;99.90;;;;;;5074000;28;20052;-53
2024/01/23 00:27:30;;;;;;;4.97;0.90;;;6.80;99.90;;;;;;5073422;28;20517;-54
2024/01/23 00:29:56;;;;;;;12.85;1.02;;;6.80;99.90;;;;;;5073807;28;20055;-51
2024/01/23 00:32:24;;;;;;;8.70;1.57;;;6.80;99.90;;;;;;5073749;28;20052;-52
2024/01/23 00:34:50;;;;;;;7.25;1.00;;;6.70;99.90;;;;;;5074009;28;20488;-53
2024/01/23 00:37:15;;;;;;;10.80;1.45;;;6.70;99.90;;;;;;5073995;28;20122;-53
2024/01/23 00:39:41;;;;;;;9.40;2.07;;;6.70;99.90;;;;;;5073864;28;20493;-50
2024/01/23 00:42:11;;;;;;;10.83;1.47;;;6.70;99.90;;;;;;5073685;28;20391;-51
2024/01/23 00:44:36;;;;;;;7.57;1.23;;;6.70;99.90;;;;;;5073405;28;20087;-53
2024/01/23 00:47:02;;;;;;;8.37;1.87;;;6.70;99.90;;;;;;5074032;28;20084;-52
2024/01/23 00:49:28;;;;;;;8.00;1.80;;;6.70;99.90;;;;;;5073876;28;20052;-50
2024/01/23 00:51:53;;;;;;;11.60;1.33;;;6.70;99.90;;;;;;5073713;28;20099;-52
2024/01/23 00:54:19;;;;;;;9.17;1.63;;;6.70;99.90;;;;;;5072701;28;20044;-53
2024/01/23 00:56:44;;;;;;;9.87;1.53;;;6.70;99.90;;;;;;5073721;28;20052;-51
2024/01/23 00:59:11;;;;;;;7.90;1.50;;;6.70;99.90;;;;;;5074108;28;20062;-52
2024/01/23 01:01:37;;;;;;;9.70;1.60;;;6.80;99.90;;;;;;5073634;28;20080;-50
2024/01/23 01:04:03;;;;;;;9.33;1.77;;;6.70;99.90;;;;;;5072399;28;20068;-52
2024/01/23 01:06:29;;;;;;;16.15;2.05;;;6.80;99.90;;;;;;5073773;28;20123;-52
2024/01/23 01:08:55;;;;;;;15.05;2.33;;;6.80;99.90;;;;;;5073767;28;20055;-50
2024/01/23 01:11:21;;;;;;;8.32;1.45;;;6.80;99.90;;;;;;5073535;28;20052;-49
2024/01/23 01:13:47;;;;;;;9.77;1.20;;;6.70;99.90;;;;;;5073642;28;20040;-52
2024/01/23 01:16:12;;;;;;;8.53;1.13;;;6.70;99.90;;;;;;5072603;28;20468;-53
2024/01/23 01:18:40;;;;;;;8.70;1.70;;;6.70;99.90;;;;;;5073353;28;20044;-52
2024/01/23 01:21:07;;;;;;;7.20;1.42;;;6.70;99.90;;;;;;5072244;28;20049;-52
2024/01/23 01:23:34;;;;;;;7.40;1.50;;;6.70;99.90;;;;;;5073345;28;20077;-50
2024/01/23 01:26:01;;;;;;;9.73;1.30;;;6.70;99.90;;;;;;5073088;28;20193;-52
2024/01/23 01:28:26;;;;;;;;;;;6.70;99.90;;;;;;5073851;28;20507;-52
2024/01/23 01:30:52;;;;;;;10.05;2.22;;;6.60;99.90;;;;;;5074346;28;20017;-49
2024/01/23 01:33:18;;;;;;;8.70;1.87;;;6.60;99.90;;;;;;5077443;28;20056;-53
2024/01/23 01:35:44;;;;;;;11.47;2.87;;;6.60;99.90;;;;;;5077183;28;20045;-51
2024/01/23 01:38:10;;;;;;;10.27;1.55;;;6.60;99.90;;;;;;5077224;28;20040;-49
2024/01/23 01:40:36;;;;;;;14.00;1.70;;;6.50;99.90;;;;;;5077178;28;20132;-52
2024/01/23 01:43:01;;;;;;;8.20;1.47;;;6.50;99.90;;;;;;5077137;28;20085;-51
2024/01/23 01:45:27;;;;;;;11.43;1.50;;;6.50;99.90;;;;;;5077228;28;20094;-52
2024/01/23 01:47:54;;;;;;;6.40;1.60;;;6.50;99.90;;;;;;5075927;28;20395;-51
2024/01/23 01:50:19;;;;;;;6.93;1.30;;;6.50;99.90;;;;;;5077111;28;20434;-53
2024/01/23 01:52:46;;;;;;;10.23;2.30;;;6.50;99.90;;;;;;5075808;28;20075;-50
2024/01/23 01:55:12;;;;;;;10.40;1.83;;;6.40;99.90;;;;;;5076667;28;20041;-50
2024/01/23 01:57:42;;;;;;;10.05;1.60;;;6.50;99.90;;;;;;5077334;28;20343;-51
2024/01/23 02:00:12;;;;;;;11.02;1.38;;;6.40;99.90;;;;;;5076711;28;20538;-52
2024/01/23 02:02:41;;;;;;;12.63;2.10;;;6.40;99.90;;;;;;5076800;28;20074;-49
2024/01/23 02:05:07;;;;;;;10.95;2.13;;;6.40;99.90;;;;;;5076629;28;20048;-50
2024/01/23 02:07:33;;;;;;;7.43;1.70;;;6.30;99.90;;;;;;5076791;28;20079;-51
2024/01/23 02:10:00;;;;;;;8.30;1.90;;;6.30;99.90;;;;;;5076379;28;20492;-49
2024/01/23 02:12:25;;;;;;;9.30;1.30;;;6.30;99.90;;;;;;5076708;28;20049;-49
2024/01/23 02:14:51;;;;;;;11.57;2.97;;;6.30;99.90;;;;;;5076510;28;20484;-51
2024/01/23 02:17:17;;;;;;;10.60;1.30;;;6.20;99.90;;;;;;5058781;28;20135;-51
2024/01/23 02:19:42;;;;;;;8.00;1.50;;;6.30;99.90;;;;;;5076510;28;20153;-50
2024/01/23 02:22:08;;;;;;;11.77;1.97;;;6.30;99.90;;;;;;5076290;28;20044;-50
2024/01/23 02:24:34;;;;;;;10.57;1.60;;;6.20;99.90;;;;;;5076177;28;20382;-49
2024/01/23 02:27:00;;;;;;;9.77;1.35;;;6.20;99.90;;;;;;5076178;28;20088;-50
2024/01/23 02:29:26;;;;;;;11.03;1.40;;;6.20;99.90;;;;;;5076803;28;20053;-52
2024/01/23 02:31:51;;;;;;;11.10;1.63;;;6.20;99.90;;;;;;5075671;28;20049;-49
2024/01/23 02:34:17;;;;;;;9.97;1.23;;;6.20;99.90;;;;;;5076195;28;20045;-50
2024/01/23 02:36:43;;;;;;;12.93;1.73;;;6.20;99.90;;;;;;5076009;28;20044;-50
2024/01/23 02:39:09;;;;;;;9.48;1.23;;;6.20;99.90;;;;;;5076013;28;20049;-49
2024/01/23 02:41:35;;;;;;;11.20;2.00;;;6.30;99.90;;;;;;5075502;28;20055;-51
2024/01/23 02:44:00;;;;;;;17.77;2.30;;;6.30;99.90;;;;;;5075741;28;20037;-49
2024/01/23 02:46:26;;;;;;;12.20;2.17;;;6.30;99.90;;;;;;5076159;28;20045;-50
2024/01/23 02:48:52;;;;;;;11.10;1.83;;;6.30;99.90;;;;;;5076035;28;20487;-48
2024/01/23 02:51:19;;;;;;;10.67;1.90;;;6.30;99.90;;;;;;5075888;28;20085;-53
2024/01/23 02:53:45;;;;;;;9.95;1.63;;;6.40;99.90;;;;;;5075642;28;20411;-51
2024/01/23 02:56:11;;;;;;;11.10;1.80;;;6.40;99.90;;;;;;5075964;28;20141;-52
2024/01/23 02:58:39;;;;;;;9.90;2.10;;;6.40;99.90;;;;;;5075835;28;20491;-52
2024/01/23 03:01:05;;;;;;;12.60;1.95;;;6.50;99.90;;;;;;5075459;28;20480;-50
2024/01/23 03:03:31;;;;;;;12.23;1.97;;;6.50;99.90;;;;;;5075671;28;20119;-52
2024/01/23 03:05:56;;;;;;;13.53;1.83;;;6.50;99.90;;;;;;5075445;28;20480;-51
2024/01/23 03:08:23;;;;;;;13.20;1.80;;;6.50;99.90;;;;;;5075293;28;20070;-50
2024/01/23 03:10:49;;;;;;;8.38;1.65;;;6.50;99.90;;;;;;5075228;28;20496;-49
2024/01/23 03:13:15;;;;;;;11.05;2.08;;;6.50;99.90;;;;;;5074489;28;20071;-52
2024/01/23 03:15:41;;;;;;;8.17;1.60;;;6.60;99.90;;;;;;5075538;28;20387;-52
2024/01/23 03:18:06;;;;;;;10.93;1.83;;;6.50;99.90;;;;;;5075223;28;20048;-52
2024/01/23 03:20:33;;;;;;;14.37;1.80;;;6.60;99.90;;;;;;5075339;28;20068;-51
2024/01/23 03:22:59;;;;;;;11.55;1.67;;;6.50;99.90;;;;;;5075119;28;20488;-52
2024/01/23 03:25:25;;;;;;;10.13;1.52;;;6.60;99.90;;;;;;5075196;28;20051;-53
2024/01/23 03:27:51;;;;;;;12.93;1.85;;;6.60;99.90;;;;;;5075049;28;20060;-50
2024/01/23 03:30:32;;;;;;;11.57;1.87;;;6.60;99.90;;;;;;5074187;28;20044;-52
2024/01/23 03:32:59;;;;;;;9.65;1.52;;;6.70;99.90;;;;;;5075004;28;20044;-53
2024/01/23 03:35:24;;;;;;;9.02;1.60;;;6.70;99.90;;;;;;5074974;28;20037;-49
2024/01/23 03:37:51;;;;;;;13.67;2.23;;;6.70;99.90;;;;;;5075054;28;20441;-49
2024/01/23 03:40:17;;;;;;;6.07;1.40;;;6.70;99.90;;;;;;5074887;28;20395;-49
2024/01/23 03:42:43;;;;;;;10.00;1.30;;;6.70;99.90;;;;;;5074917;28;20047;-50
2024/01/23 03:45:09;;;;;;;8.90;2.00;;;6.70;99.90;;;;;;5074709;28;20395;-48
2024/01/23 03:47:35;;;;;;;14.17;1.93;;;6.70;99.90;;;;;;5074734;28;20290;-50
2024/01/23 03:50:01;;;;;;;12.75;1.73;;;6.80;99.90;;;;;;5074686;28;20041;-49
2024/01/23 03:52:28;;;;;;;12.95;1.90;;;6.70;99.90;;;;;;5074673;28;20048;-49
2024/01/23 03:54:53;;;;;;;17.58;2.72;;;6.80;99.90;;;;;;5074104;28;20446;-49
2024/01/23 03:57:19;;;;;;;10.37;3.07;;;6.80;99.90;;;;;;5073588;28;20052;-48
2024/01/23 03:59:46;;;;;;;15.17;1.57;;;6.80;99.90;;;;;;5074421;28;20051;-51
2024/01/23 04:02:12;;;;;;;13.50;1.98;;;6.80;99.90;;;;;;5074271;28;20775;-50
2024/01/23 04:04:38;;;;;;;11.80;1.40;;;6.90;99.90;;;;;;5074094;28;20039;-48
2024/01/23 04:07:04;;;;;;;17.88;2.55;;;6.80;99.90;;;;;;5074608;28;20077;-48
2024/01/23 04:09:30;;;;;;;11.17;2.27;;;6.90;99.90;;;;;;5074382;28;20044;-48
2024/01/23 04:11:56;;;;;;;7.03;1.60;;;6.90;99.90;;;;;;5073253;28;20084;-53
2024/01/23 04:14:22;;;;;;;12.98;1.92;;;6.90;99.90;;;;;;5074259;28;20443;-49
2024/01/23 04:16:48;;;;;;;15.53;2.20;;;7.00;99.90;;;;;;5074174;28;20040;-51
2024/01/23 04:19:13;;;;;;;9.33;2.60;;;7.00;99.90;;;;;;5074001;28;20094;-51
2024/01/23 04:21:39;;;;;;;18.43;2.30;;;7.00;99.90;;;;;;5074112;28;20052;-50
2024/01/23 04:24:05;;;;;;;11.33;1.93;;;7.00;99.90;;;;;;5074471;28;20083;-49
2024/01/23 04:26:31;;;;;;;13.00;2.47;;;7.00;99.90;;;;;;5073045;28;20084;-49
2024/01/23 04:28:57;;;;;;;13.98;2.88;;;7.00;99.90;;;;;;5073752;28;20476;-51
2024/01/23 04:31:23;;;;;;;13.93;1.47;;;7.00;99.90;;;;;;5074042;28;20060;-50
2024/01/23 04:33:49;;;;;;;16.77;1.73;;;7.00;99.90;;;;;;5073954;28;20056;-49
2024/01/23 04:36:16;;;;;;;11.90;1.73;;;7.00;99.90;;;;;;5072983;28;20131;-49
2024/01/23 04:38:42;;;;;;;16.52;2.40;;;7.00;99.90;;;;;;5074104;28;20048;-50
2024/01/23 04:41:09;;;;;;;10.20;1.60;;;7.10;99.90;;;;;;5072877;28;20040;-49
2024/01/23 04:43:35;;;;;;;16.60;2.38;;;7.10;99.90;;;;;;5073948;28;20040;-49
2024/01/23 04:46:00;;;;;;;13.77;2.13;;;7.10;99.90;;;;;;5073798;28;20048;-48
2024/01/23 04:48:26;;;;;;;18.93;2.70;;;7.10;99.90;;;;;;5073605;28;20076;-49
2024/01/23 04:50:52;;;;;;;12.03;2.77;;;7.10;99.90;;;;;;5074056;28;20462;-51
2024/01/23 04:53:17;;;;;;;15.60;1.93;;;7.10;99.90;;;;;;5074113;28;20121;-50
2024/01/23 04:55:43;;;;;;;9.97;1.63;;;7.10;99.90;;;;;;5073721;28;20036;-49
2024/01/23 04:58:09;;;;;;;20.57;2.70;;;7.10;99.90;;;;;;5072393;28;20055;-50
2024/01/23 05:00:35;;;;;;;11.70;1.77;;;7.10;99.90;;;;;;5073474;28;20044;-48
2024/01/23 05:03:01;;;;;;;13.97;2.37;;;7.10;99.90;;;;;;5073453;28;20102;-49
2024/01/23 05:05:28;;;;;;;15.35;1.77;;;7.10;99.90;;;;;;5072900;28;20476;-49
2024/01/23 05:07:53;;;;;;;11.18;1.85;;;7.10;99.90;;;;;;5073483;28;20052;-49
2024/01/23 05:10:19;;;;;;;15.93;2.53;;;7.10;99.90;;;;;;5073653;28;20422;-49
2024/01/23 05:12:45;;;;;;;15.23;2.70;;;7.10;99.90;;;;;;5073390;28;20400;-49
2024/01/23 05:15:10;;;;;;;11.87;1.60;;;7.10;99.90;;;;;;5073368;28;20118;-49
2024/01/23 05:17:37;;;;;;;11.57;1.93;;;7.10;99.90;;;;;;5073409;28;20047;-50
2024/01/23 05:20:06;;;;;;;15.40;2.17;;;7.10;99.90;;;;;;5072761;28;20059;-49
2024/01/23 05:22:31;;;;;;;11.13;2.25;;;7.10;99.90;;;;;;5073418;28;20045;-50
2024/01/23 05:24:57;;;;;;;23.70;2.73;;;7.10;99.90;;;;;;5073536;28;20063;-50
2024/01/23 05:27:23;;;;;;;15.37;1.77;;;7.10;99.90;;;;;;5073380;28;20064;-49
2024/01/23 05:29:48;;;;;;;20.50;2.77;;;7.10;99.90;;;;;;5073472;28;20059;-50
2024/01/23 05:32:14;;;;;;;19.40;2.50;;;7.10;99.90;;;;;;5073238;28;20502;-49
2024/01/23 05:34:40;;;;;;;9.93;2.23;;;7.10;99.90;;;;;;5074045;28;20442;-49
2024/01/23 05:37:06;;;;;;;13.38;2.17;;;7.10;99.90;;;;;;5073319;28;20053;-49
2024/01/23 05:39:38;;;;;;;14.97;2.63;;;7.00;99.90;;;;;;5073279;28;20053;-48
2024/01/23 05:42:05;;;;;;;15.60;3.13;;;7.00;99.90;;;;;;5073204;28;20580;-50
2024/01/23 05:44:32;;;;;;;14.88;2.92;;;7.00;99.90;;;;;;5072983;28;20125;-51
2024/01/23 05:46:58;;;;;;;17.70;2.20;;;6.90;99.90;;;;;;5072995;28;20044;-52
2024/01/23 05:49:24;;;;;;;16.70;2.90;;;6.90;99.90;;;;;;5073250;28;20047;-52
2024/01/23 05:51:49;;;;;;;22.23;2.50;;;6.80;99.90;;;;;;5072240;28;20465;-52
2024/01/23 05:54:15;;;;;;;13.83;3.00;;;6.80;99.90;;;;;;5073205;28;20043;-50
2024/01/23 05:56:41;;;;;;;13.57;2.70;;;6.80;99.90;;;;;;5073174;28;20040;-51
2024/01/23 05:59:06;;;;;;;14.33;2.63;;;6.70;99.90;;;;;;5073252;28;20045;-53
2024/01/23 06:01:33;;;;;;;15.13;2.23;;;6.70;99.90;;;;;;5072867;28;20534;-51
2024/01/23 06:03:59;;;;;;;16.35;2.47;;;6.60;99.90;;;;;;5073334;28;20050;-51
2024/01/23 06:06:25;;;;;;;14.43;2.78;;;6.70;99.90;;;;;;5072091;28;20507;-49
2024/01/23 06:08:51;;;;;;;10.10;2.47;;;6.60;99.90;;;;;;5072992;28;20048;-52
2024/01/23 06:11:17;;;;;;;13.60;1.90;;;6.60;99.90;;;;;;5072968;28;20119;-51
2024/01/23 06:13:43;;;;;;;16.00;2.77;;;6.60;99.90;;;;;;5072983;28;20476;-49
2024/01/23 06:16:09;;;;;;;14.33;2.43;;;6.60;99.90;;;;;;5072898;28;20508;-49
2024/01/23 06:18:35;;;;;;;15.85;3.75;;;6.60;99.90;;;;;;5076381;28;20048;-51
2024/01/23 06:21:02;;;;;;;11.47;2.53;;;6.50;99.90;;;;;;5076833;28;20480;-51
2024/01/23 06:23:28;;;;;;;10.68;2.13;;;6.50;99.90;;;;;;5076452;28;20049;-49
2024/01/23 06:25:53;;;;;;;14.53;3.20;;;6.50;99.90;;;;;;5076288;28;20048;-50
2024/01/23 06:28:19;;;;;;;16.07;3.07;;;6.50;99.90;;;;;;5076369;28;20053;-48
2024/01/23 06:30:45;;;;;;;13.23;2.63;;;6.50;99.90;;;;;;5076069;28;20056;-49
2024/01/23 06:33:11;;;;;;;14.00;2.53;;;6.40;99.90;;;;;;5076320;28;20487;-48
2024/01/23 06:35:36;;;;;;;14.13;3.37;;;6.50;99.90;;;;;;5076248;28;20045;-48
2024/01/23 06:38:02;;;;;;;15.20;2.43;;;6.40;99.90;;;;;;5076227;28;20168;-48
2024/01/23 06:40:28;;;;;;;22.10;3.63;;;6.40;99.90;;;;;;5076305;28;20487;-48
2024/01/23 06:42:53;;;;;;;11.17;2.10;;;6.40;99.90;;;;;;5075980;28;20048;-49
2024/01/23 06:45:19;;;;;;;14.47;2.20;;;6.40;99.90;;;;;;5075758;28;20055;-48
2024/01/23 06:47:45;;;;;;;15.13;2.93;;;6.40;99.90;;;;;;5075989;28;20084;-48
2024/01/23 06:50:12;;;;;;;12.47;2.07;;;6.40;99.90;;;;;;5076035;28;20055;-47
2024/01/23 06:52:37;;;;;;;15.98;2.80;;;6.40;99.90;;;;;;5075838;28;20048;-50
2024/01/23 06:55:04;;;;;;;13.73;2.83;;;6.30;99.90;;;;;;5074767;28;20175;-47
2024/01/23 06:57:29;;;;;;;20.08;2.58;;;6.40;99.90;;;;;;5075756;28;20070;-48
2024/01/23 06:59:55;;;;;;;14.50;2.23;;;6.30;99.90;;;;;;5075727;28;20173;-49
2024/01/23 07:02:21;;;;;;;19.30;3.73;;;6.30;99.90;;;;;;5075666;28;20468;-48
2024/01/23 07:04:47;;;;;;;23.43;3.63;;;6.30;99.90;;;;;;5075614;28;20117;-47
2024/01/23 07:07:12;;;;;;;14.00;2.83;;;6.30;99.90;;;;;;5075669;28;20044;-48
2024/01/23 07:09:38;;;;;;;18.67;3.10;;;6.30;99.90;;;;;;5075617;28;20082;-48
2024/01/23 07:12:04;;;;;;;18.50;3.67;;;6.30;99.90;;;;;;5075354;28;20052;-47
2024/01/23 07:14:30;;;;;;;13.02;1.98;;;6.30;99.90;;;;;;5075282;28;20045;-47
2024/01/23 07:16:56;;;;;;;19.40;2.73;;;6.20;99.90;;;;;;5075392;28;20140;-48
2024/01/23 07:19:21;;;;;;;12.93;2.73;;;6.20;99.90;;;;;;5075224;28;20048;-47
2024/01/23 07:21:48;;;;;;;21.87;2.73;;;6.20;99.90;;;;;;5075383;28;20135;-48
2024/01/23 07:24:13;;;;;;;15.60;2.90;;;6.20;99.90;;;;;;5075212;28;20040;-48
2024/01/23 07:26:39;;;;;;;12.03;2.57;;;6.20;99.90;;;;;;5074936;28;20109;-48
2024/01/23 07:29:05;;;;;;;14.40;2.35;;;6.10;99.90;;;;;;5074910;28;20044;-48
2024/01/23 07:31:31;;;;;;;15.70;3.30;;;6.10;99.90;;;;;;5075185;28;20040;-49
2024/01/23 07:33:57;;;;;;;15.77;2.60;;;6.10;99.90;;;;;;5074779;28;20056;-48
2024/01/23 07:36:23;;;;;;;16.52;2.65;;;6.10;99.90;;;;;;5075026;28;20044;-48
2024/01/23 07:38:48;;;;;;;17.93;3.30;;;6.10;99.90;;;;;;5074846;28;20052;-48
2024/01/23 07:41:14;;;;;;;17.30;3.60;;;6.10;99.90;;;;;;5075059;28;20071;-47
2024/01/23 07:43:40;;;;;;;14.50;2.87;;;6.10;99.90;;;;;;5074653;28;20385;-48
2024/01/23 07:46:05;;;;;;;14.17;3.20;;;6.10;99.90;;;;;;5074803;28;20041;-48
2024/01/23 07:48:31;;;;;;;15.67;2.27;;;6.10;99.90;;;;;;5074790;28;20048;-47
2024/01/23 07:50:57;;;;;;;14.40;2.47;;;6.10;99.90;;;;;;5073808;28;20056;-48
2024/01/23 07:53:23;;;;;;;12.90;2.40;;;6.10;99.90;;;;;;5074779;28;20044;-48
2024/01/23 07:55:48;;;;;;;15.83;2.33;;;6.10;99.90;;;;;;5074639;28;20438;-48
2024/01/23 07:58:14;;;;;;;17.07;2.43;;;6.10;99.90;;;;;;5074325;28;20082;-48
2024/01/23 08:00:43;;;;;;;22.87;3.30;;;6.10;99.90;;;;;;5074650;28;20087;-48
2024/01/23 08:03:08;;;;;;;19.08;3.85;;;6.10;99.90;;;;;;5074711;28;20067;-47
2024/01/23 08:05:34;;;;;;;17.97;4.07;;;6.10;99.90;;;;;;5074289;28;20472;-48
2024/01/23 08:08:00;;;;;;;15.93;2.83;;;6.10;99.90;;;;;;5073297;28;20053;-48
2024/01/23 08:10:26;;;;;;;13.27;2.67;;;6.10;99.90;;;;;;5074316;28;20131;-47
2024/01/23 08:12:53;;;;;;;18.60;3.27;;;6.00;99.90;;;;;;5074257;28;20119;-48
2024/01/23 08:15:19;;;;;;;14.20;2.47;;;6.10;99.90;;;;;;5074270;28;20041;-48
2024/01/23 08:17:45;;;;;;;12.80;3.03;;;6.10;99.90;;;;;;5074785;28;20109;-47
2024/01/23 08:20:11;;;;;;;10.97;2.80;;;6.00;99.90;;;;;;5074204;28;20049;-48
2024/01/23 08:22:36;;;;;;;16.50;2.83;;;6.10;99.90;;;;;;5074050;28;20052;-47
2024/01/23 08:25:02;;;;;;;18.27;2.50;;;6.10;99.90;;;;;;5074062;28;20351;-47
2024/01/23 08:27:28;;;;;;;13.77;2.60;;;6.10;99.90;;;;;;5072574;28;20423;-48
2024/01/23 08:29:54;;;;;;;13.60;3.43;;;6.10;99.90;;;;;;5074084;28;20056;-48
2024/01/23 08:32:19;;;;;;;16.47;3.10;;;6.20;99.90;;;;;;5074005;28;20125;-48
2024/01/23 08:34:45;;;;;;;17.80;3.03;;;6.10;99.90;;;;;;5074064;28;20051;-47
2024/01/23 08:37:11;;;;;;;13.83;2.50;;;6.20;99.90;;;;;;5073857;28;20391;-47
2024/01/23 08:39:36;;;;;;;16.60;2.77;;;6.20;99.90;;;;;;5073483;28;20040;-48
2024/01/23 08:42:03;;;;;;;16.03;3.20;;;6.20;99.90;;;;;;5073772;28;20040;-48
2024/01/23 08:44:29;;;;;;;17.95;2.88;;;6.20;99.90;;;;;;5072647;28;20040;-48
2024/01/23 08:46:54;;;;;;;16.77;2.17;;;6.20;99.90;;;;;;5073792;28;20044;-47
2024/01/23 08:49:20;;;;;;;16.37;3.00;;;6.20;99.90;;;;;;5073820;28;20037;-49
2024/01/23 08:51:46;;;;;;;12.23;2.70;;;6.30;99.90;;;;;;5073738;28;20048;-51
2024/01/23 08:54:13;;;;;;;16.33;2.28;;;6.30;99.90;;;;;;5073708;28;20041;-48
2024/01/23 08:56:41;;;;;;;15.48;2.85;;;6.30;99.90;;;;;;5073673;28;20050;-50
2024/01/23 08:59:07;;;;;;;17.97;2.30;;;6.30;99.90;;;;;;5072780;28;20131;-51
2024/01/23 09:01:33;;;;;;;16.50;2.63;;;6.30;99.90;;;;;;5073743;28;20087;-48
2024/01/23 09:03:58;;;;;;;16.50;2.40;;;6.30;99.90;;;;;;5073533;28;20047;-51
2024/01/23 09:06:24;;;;;;;10.97;2.83;;;6.30;99.90;;;;;;5073460;28;20040;-51
2024/01/23 09:08:49;;;;;;;20.57;3.17;;;6.30;99.90;;;;;;5073495;28;20130;-51
2024/01/23 09:11:16;;;;;;;17.63;2.00;;;6.30;99.90;;;;;;5073582;28;20095;-51
2024/01/23 09:13:42;;;;;;;20.23;3.35;;;6.30;99.90;;;;;;5072412;28;20060;-51
2024/01/23 09:16:08;;;;;;;24.60;2.70;;;6.40;99.90;;;;;;5073636;28;20044;-50
2024/01/23 09:18:33;;;;;;;13.03;2.17;;;6.40;99.90;;;;;;5072371;28;20423;-50
2024/01/23 09:21:02;;;;;;;18.67;2.90;;;6.40;99.90;;;;;;5073472;28;20052;-47
2024/01/23 09:23:28;;;;;;;16.23;2.65;;;6.40;99.90;;;;;;5073523;28;20048;-48
2024/01/23 09:25:54;;;;;;;22.17;2.88;;;6.40;99.90;;;;;;5073236;28;20052;-49
2024/01/23 09:28:20;;;;;;;16.30;2.50;;;6.50;99.90;;;;;;5073468;28;20052;-51
2024/01/23 09:30:46;;;;;;;12.23;2.53;;;6.50;99.90;;;;;;5073353;28;20510;-49
2024/01/23 09:33:11;;;;;;;14.47;2.23;;;6.50;99.90;;;;;;5073488;28;20045;-47
2024/01/23 09:35:37;;;;;;;16.00;3.23;;;6.50;99.90;;;;;;5073364;28;20044;-47
2024/01/23 09:38:03;;;;;;;13.10;2.80;;;6.50;99.90;;;;;;5073254;28;20052;-47
2024/01/23 09:40:29;;;;;;;17.87;2.80;;;6.60;99.90;;;;;;5072979;28;20052;-48
2024/01/23 09:42:56;;;;;;;18.00;3.88;;;6.60;99.90;;;;;;5073296;28;20484;-48
2024/01/23 09:45:25;;;;;;;;;;;6.60;99.90;;;;;;5073564;28;20052;-47
2024/01/23 09:47:51;;;;;;;16.50;3.33;;;6.70;99.90;;;;;;5073269;28;19945;-48
2024/01/23 09:50:18;;;;;;;17.88;3.05;;;6.70;99.90;;;;;;5073186;28;20132;-47
2024/01/23 09:52:45;;;;;;;13.88;2.00;;;6.70;99.90;;;;;;5075258;28;20509;-48
2024/01/23 09:55:11;;;;;;;15.35;2.40;;;6.70;99.90;;;;;;5076871;28;20400;-47
2024/01/23 09:57:42;;;;;;;11.65;3.17;;;6.80;99.90;;;;;;5076958;28;20053;-47
2024/01/23 10:00:11;;;;;;;22.15;2.55;;;6.80;99.90;;;;;;5076799;28;20040;-48
2024/01/23 10:02:39;;;;;;;19.35;3.15;;;6.80;99.90;;;;;;5076772;28;20055;-49
2024/01/23 10:05:08;;;;;;;14.38;2.88;;;6.90;99.90;;;;;;5076854;28;20051;-48
2024/01/23 10:07:38;;;;;;;16.50;2.92;;;6.90;99.90;;;;;;5076517;28;20554;-48
2024/01/23 10:10:15;;;;;;;19.65;2.83;;;6.90;99.90;;;;;;5076679;28;20052;-47
2024/01/23 10:12:44;;;;;;;21.43;2.93;;;7.00;99.90;;;;;;5076286;28;20052;-48
2024/01/23 10:15:11;;;;;;;10.85;2.20;;;7.00;99.90;;;;;;5076559;28;20040;-48
2024/01/23 10:17:37;;;;;;;14.38;2.70;;;7.00;99.90;;;;;;5092560;28;20407;-47
2024/01/23 10:20:04;;;;;;;11.52;2.08;;;7.00;99.90;;;;;;5075650;28;20044;-48
2024/01/23 10:22:29;;;;;;;17.17;3.10;;;7.00;99.90;;;;;;5076530;28;20045;-50
2024/01/23 10:24:55;;;;;;;16.53;2.53;;;7.10;99.90;;;;;;5076414;28;20051;-48
2024/01/23 10:27:21;;;;;;;14.10;2.30;;;7.10;99.90;;;;;;5076186;28;20099;-48
2024/01/23 10:29:47;;;;;;;16.13;3.13;;;7.20;99.90;;;;;;5076404;28;20412;-48
2024/01/23 10:32:12;;;;;;;17.37;2.70;;;7.20;99.90;;;;;;5076354;28;20434;-48
2024/01/23 10:34:38;;;;;;;16.33;2.87;;;7.30;99.90;;;;;;5076130;28;20123;-47
2024/01/23 10:37:05;;;;;;;20.33;2.43;;;7.20;99.90;;;;;;5075282;28;20052;-48
2024/01/23 10:39:31;;;;;;;;;;;7.30;99.90;;;;;;5076571;28;20511;-48
2024/01/23 10:41:58;;;;;;;16.52;2.70;;;7.40;99.90;;;;;;5076185;28;19920;-47
2024/01/23 10:44:26;;;;;;;14.32;2.70;;;7.40;99.90;;;;;;5076027;28;20048;-47
2024/01/23 10:46:55;;;;;;;11.05;1.80;;;7.40;99.90;;;;;;5075796;28;20075;-48
2024/01/23 10:49:22;;;;;;;21.80;2.55;;;7.50;99.90;;;;;;5075843;28;20083;-48
2024/01/23 10:51:48;;;;;;;;;;;7.50;99.90;;;;;;5075291;28;20152;-48
2024/01/23 10:54:30;;;;;;;16.45;2.28;;;7.60;99.90;;;;;;5075895;28;19931;-48
2024/01/23 10:56:58;;;;;;;18.52;2.45;;;7.60;99.90;;;;;;5075700;28;20083;-47
2024/01/23 10:59:29;;;;;;;12.25;3.28;;;7.70;99.90;;;;;;5075649;28;20045;-48
2024/01/23 11:02:31;;;;;;;18.80;1.98;;;7.70;99.90;;;;;;5075589;28;20049;-47
2024/01/23 11:05:01;;;;;;;16.85;2.30;;;7.70;99.90;;;;;;5075748;28;20044;-48
2024/01/23 11:07:40;;;;;;;11.60;2.35;;;7.70;99.90;;;;;;5075977;28;20131;-48
2024/01/23 11:10:27;;;;;;;11.05;2.40;;;7.80;99.90;;;;;;5075423;28;20083;-50
2024/01/23 11:13:11;;;;;;;13.23;2.63;;;7.80;99.90;;;;;;5074911;28;20040;-47
2024/01/23 11:15:37;;;;;;;10.82;2.22;;;7.80;99.90;;;;;;5075678;28;20098;-48
2024/01/23 11:18:36;;;;;;;17.05;2.95;;;7.90;99.90;;;;;;5075522;28;20101;-49
2024/01/23 11:21:04;;;;;;;17.90;2.38;;;7.90;99.90;;;;;;5062981;28;20054;-49
2024/01/23 11:23:31;;;;;;;15.38;2.15;;;7.90;99.90;;;;;;5075412;28;20113;-47
2024/01/23 11:26:22;;;;;;;6.90;1.63;;;7.80;99.90;;;;;;5075235;28;20036;-48
2024/01/23 11:28:59;;;;;;;15.07;2.58;;;7.80;99.90;;;;;;5075071;28;20092;-47
2024/01/23 11:31:27;;;;;;;10.60;1.73;;;7.80;99.90;;;;;;5075449;28;20523;-51
2024/01/23 11:34:13;;;;;;;14.38;2.15;;;7.70;99.90;;;;;;5075078;28;20051;-48
2024/01/23 11:36:39;;;;;;;15.60;2.17;;;7.80;99.90;;;;;;5074805;28;20084;-47
2024/01/23 11:39:13;;;;;;;9.53;1.80;;;7.80;99.90;;;;;;5074711;28;20051;-47
2024/01/23 11:41:39;;;;;;;12.68;2.47;;;7.80;99.90;;;;;;5074732;28;20123;-47
2024/01/23 11:44:14;;;;;;;14.77;2.23;;;7.90;99.90;;;;;;5074880;28;20468;-47
2024/01/23 11:46:40;;;;;;;13.73;2.63;;;7.90;99.90;;;;;;5074783;28;20512;-48
2024/01/23 11:49:06;;;;;;;13.60;2.10;;;7.90;99.90;;;;;;5057107;28;20095;-47
2024/01/23 11:51:36;;;;;;;15.00;3.20;;;7.90;99.90;;;;;;5074806;28;20080;-48
2024/01/23 11:54:07;;;;;;;13.80;2.25;;;7.90;99.90;;;;;;5074607;28;20313;-47
2024/01/23 11:56:34;;;;;;;10.35;1.88;;;7.90;99.90;;;;;;5075157;28;20048;-51
2024/01/23 11:59:00;;;;;;;14.07;2.50;;;7.90;99.90;;;;;;5075039;28;20132;-48
2024/01/23 12:01:30;;;;;;;10.87;1.70;;;7.90;99.90;;;;;;5074579;28;20496;-48
2024/01/23 12:03:57;;;;;;;13.82;2.75;;;7.90;99.90;;;;;;5074540;28;20404;-48
2024/01/23 12:06:25;;;;;;;14.38;2.58;;;7.90;99.90;;;;;;5074428;28;20052;-49
2024/01/23 12:08:51;;;;;;;14.18;2.03;;;7.90;99.90;;;;;;5090169;28;20044;-47
2024/01/23 12:11:17;;;;;;;8.20;2.33;;;7.90;99.90;;;;;;5074362;28;20040;-48
2024/01/23 12:13:48;;;;;;;13.98;1.67;;;7.90;99.90;;;;;;5073017;28;20087;-48
2024/01/23 12:16:15;;;;;;;9.63;1.85;;;7.90;99.90;;;;;;5073958;28;20064;-49
2024/01/23 12:18:41;;;;;;;7.93;1.58;;;7.90;99.90;;;;;;5074273;28;20049;-49
2024/01/23 12:21:07;;;;;;;9.57;2.25;;;7.90;99.90;;;;;;5073920;28;20041;-52
2024/01/23 12:23:33;;;;;;;8.55;2.00;;;7.90;99.90;;;;;;5074249;28;20067;-48
2024/01/23 12:25:59;;;;;;;16.67;2.45;;;7.90;99.90;;;;;;5074096;28;20044;-49
2024/01/23 12:28:29;;;;;;;11.65;1.52;;;8.00;99.90;;;;;;5073787;28;20396;-49
2024/01/23 12:30:55;;;;;;;16.48;3.03;;;8.00;99.90;;;;;;5074084;28;20048;-49
2024/01/23 12:33:21;;;;;;;15.68;2.63;;;8.00;99.90;;;;;;5073858;28;20037;-49
2024/01/23 12:35:48;;;;;;;9.57;1.70;;;8.00;99.90;;;;;;5073908;28;20043;-51
2024/01/23 12:38:18;;;;;;;15.23;2.90;;;8.00;99.90;;;;;;5073987;28;20040;-48
2024/01/23 12:40:44;;;;;;;14.10;2.40;;;8.10;99.90;;;;;;5073972;28;20229;-49
2024/01/23 12:43:10;;;;;;;14.93;2.42;;;8.10;99.90;;;;;;5072656;28;20131;-49
2024/01/23 12:45:36;;;;;;;18.27;2.47;;;8.10;99.90;;;;;;5073875;28;20123;-48
2024/01/23 12:48:02;;;;;;;12.17;2.30;;;8.10;99.90;;;;;;5073844;28;20047;-48